Time;durP1;ratioP1;P1;durP2;ratioP2;P2;SDS_P1;SDS_P2;PMS_P1;PMS_P2;Temp;Humidity;BMP_temperature;BMP_pressure;BME280_temperature;BME280_humidity;BME280_pressure;Samples;Min_cycle;Max_cycle;Signal;HPM_P1;HPM_P2
2020/12/13 00:01:46;;;;;;;95.82;45.92;;;2.90;99.90;;;;;;5017973;28;20295;-81
2020/12/13 00:04:12;;;;;;;111.03;48.63;;;2.90;99.90;;;;;;5017238;28;20571;-82
2020/12/13 00:06:39;;;;;;;102.80;47.20;;;2.90;99.90;;;;;;5017327;28;20230;-81
2020/12/13 00:09:06;;;;;;;104.57;45.70;;;2.90;99.90;;;;;;5017005;28;20220;-82
2020/12/13 00:11:35;;;;;;;101.30;46.78;;;2.90;99.90;;;;;;5017115;28;20211;-81
2020/12/13 00:14:02;;;;;;;96.35;45.28;;;2.90;99.90;;;;;;5016977;28;20214;-82
2020/12/13 00:16:28;;;;;;;106.28;45.17;;;2.80;99.90;;;;;;5017033;28;20200;-81
2020/12/13 00:18:55;;;;;;;85.88;42.90;;;2.80;99.90;;;;;;5017696;28;20239;-81
2020/12/13 00:21:26;;;;;;;103.38;48.35;;;2.80;99.90;;;;;;5016849;28;20208;-82
2020/12/13 00:23:53;;;;;;;106.35;47.38;;;2.80;99.90;;;;;;5017152;28;20630;-81
2020/12/13 00:26:20;;;;;;;103.82;48.35;;;2.80;99.90;;;;;;5017739;28;20224;-81
2020/12/13 00:28:47;;;;;;;110.75;47.75;;;2.80;99.90;;;;;;5016334;28;20228;-82
2020/12/13 00:31:14;;;;;;;95.38;47.22;;;2.80;99.90;;;;;;5018970;28;20232;-81
2020/12/13 00:33:41;;;;;;;109.15;49.03;;;2.80;99.90;;;;;;5015799;28;20290;-81
2020/12/13 00:36:07;;;;;;;117.60;48.95;;;2.80;99.90;;;;;;5016560;28;20203;-81
2020/12/13 00:38:34;;;;;;;98.75;45.15;;;2.80;99.90;;;;;;5017782;28;20224;-86
2020/12/13 00:41:01;;;;;;;106.13;48.65;;;2.80;99.90;;;;;;5015429;28;20453;-79
2020/12/13 00:43:28;;;;;;;102.10;45.90;;;2.80;99.90;;;;;;5021116;28;20291;-79
2020/12/13 00:45:54;;;;;;;97.95;46.67;;;2.80;99.90;;;;;;5022263;28;20221;-79
2020/12/13 00:48:20;;;;;;;107.82;47.97;;;2.90;99.90;;;;;;5015611;28;20219;-80
2020/12/13 00:50:47;;;;;;;98.68;45.63;;;2.90;99.90;;;;;;5016288;28;20600;-80
2020/12/13 00:53:13;;;;;;;102.43;47.42;;;2.80;99.90;;;;;;5016518;28;20204;-81
2020/12/13 00:55:39;;;;;;;117.05;48.42;;;2.80;99.90;;;;;;5016407;28;20627;-80
2020/12/13 00:58:06;;;;;;;114.63;51.50;;;2.80;99.90;;;;;;5022604;28;20267;-79
2020/12/13 01:00:33;;;;;;;102.85;45.78;;;2.80;99.90;;;;;;5023718;28;20343;-81
2020/12/13 01:03:00;;;;;;;99.95;47.85;;;2.80;99.90;;;;;;5017278;28;20204;-80
2020/12/13 01:05:27;;;;;;;107.65;46.72;;;2.80;99.90;;;;;;5016181;28;20231;-80
2020/12/13 01:07:53;;;;;;;115.18;51.17;;;2.80;99.90;;;;;;5015258;28;20681;-81
2020/12/13 01:10:20;;;;;;;105.25;47.30;;;2.80;99.90;;;;;;5015718;28;20221;-80
2020/12/13 01:12:46;;;;;;;104.90;46.92;;;2.80;99.90;;;;;;5018122;28;20208;-81
2020/12/13 01:15:14;;;;;;;114.10;49.55;;;2.80;99.90;;;;;;5019495;28;20516;-81
2020/12/13 01:17:44;;;;;;;100.20;48.55;;;2.80;99.90;;;;;;5019093;28;20251;-81
2020/12/13 01:20:10;;;;;;;110.57;46.47;;;2.80;99.90;;;;;;5019287;28;20548;-81
2020/12/13 01:22:37;;;;;;;107.13;47.72;;;2.80;99.90;;;;;;5018712;28;20259;-81
2020/12/13 01:25:04;;;;;;;120.50;47.33;;;2.90;99.90;;;;;;5018193;28;20200;-81
2020/12/13 01:27:31;;;;;;;96.25;46.35;;;2.80;99.90;;;;;;5020382;28;20212;-80
2020/12/13 01:29:57;;;;;;;105.63;47.88;;;2.70;99.90;;;;;;5020623;28;20311;-80
2020/12/13 01:32:24;;;;;;;101.63;45.55;;;2.70;99.90;;;;;;5020827;28;20214;-81
2020/12/13 01:34:50;;;;;;;123.18;50.85;;;2.80;99.90;;;;;;5024560;28;20244;-79
2020/12/13 01:37:17;;;;;;;107.53;50.35;;;2.70;99.90;;;;;;5036906;28;20224;-81
2020/12/13 01:39:43;;;;;;;109.70;49.17;;;2.70;99.90;;;;;;5037712;28;20235;-80
2020/12/13 01:42:09;;;;;;;118.65;49.63;;;2.70;99.90;;;;;;5036890;28;20268;-79
2020/12/13 01:44:37;;;;;;;120.93;49.95;;;2.80;99.90;;;;;;5038187;28;20252;-80
2020/12/13 01:47:05;;;;;;;123.47;47.35;;;2.80;99.90;;;;;;5037283;28;20327;-79
2020/12/13 01:49:35;;;;;;;112.90;47.60;;;2.80;99.90;;;;;;5036211;28;20739;-80
2020/12/13 01:52:39;;;;;;;108.13;46.88;;;2.80;99.90;;;;;;5037326;28;20632;-80
2020/12/13 01:55:01;;;;;;;118.90;48.13;;;2.80;99.90;;;;;;5037752;28;20228;-79
2020/12/13 01:57:30;;;;;;;114.38;51.60;;;2.80;99.90;;;;;;5038058;28;20177;-79
2020/12/13 02:00:00;;;;;;;121.53;51.13;;;2.80;99.90;;;;;;5038453;28;20212;-80
2020/12/13 02:02:31;;;;;;;112.30;47.70;;;2.80;99.90;;;;;;5025248;28;20258;-81
2020/12/13 02:04:59;;;;;;;120.90;49.67;;;2.80;99.90;;;;;;5017559;28;20204;-80
2020/12/13 02:07:29;;;;;;;124.28;48.20;;;2.80;99.90;;;;;;5017691;28;20216;-80
2020/12/13 02:09:55;;;;;;;110.50;48.47;;;2.80;99.90;;;;;;5017243;28;20234;-81
2020/12/13 02:12:22;;;;;;;113.43;47.17;;;2.80;99.90;;;;;;5017441;28;20294;-80
2020/12/13 02:14:48;;;;;;;99.82;45.38;;;2.80;99.90;;;;;;5017609;28;20208;-80
2020/12/13 02:17:15;;;;;;;123.47;51.10;;;2.80;99.90;;;;;;5017417;28;20208;-80
2020/12/13 02:19:41;;;;;;;114.57;47.30;;;2.80;99.90;;;;;;5017191;28;20228;-81
2020/12/13 02:22:11;;;;;;;114.10;49.88;;;2.80;99.90;;;;;;5018344;28;20208;-80
2020/12/13 02:24:37;;;;;;;110.13;46.58;;;2.90;99.90;;;;;;5017170;28;20208;-80
2020/12/13 02:27:07;;;;;;;121.30;49.63;;;2.80;99.90;;;;;;5017380;28;20681;-81
2020/12/13 02:29:33;;;;;;;114.88;51.03;;;2.80;99.90;;;;;;5017504;28;20287;-81
2020/12/13 02:32:00;;;;;;;114.40;47.28;;;2.80;99.90;;;;;;5017130;28;20696;-81
2020/12/13 02:34:26;;;;;;;108.65;48.38;;;2.80;99.90;;;;;;5016833;28;20208;-81
2020/12/13 02:36:52;;;;;;;117.32;49.45;;;2.90;99.90;;;;;;5017057;28;20383;-81
2020/12/13 02:39:20;;;;;;;116.93;49.95;;;2.90;99.90;;;;;;5018600;28;20713;-80
2020/12/13 02:41:58;;;;;;;121.65;49.65;;;2.80;99.90;;;;;;5026001;28;20235;-81
2020/12/13 02:44:25;;;;;;;113.57;47.17;;;2.80;99.90;;;;;;5017563;28;20224;-80
2020/12/13 02:46:51;;;;;;;103.35;49.45;;;2.80;99.90;;;;;;5016183;28;20232;-81
2020/12/13 02:49:18;;;;;;;126.13;48.17;;;2.70;99.90;;;;;;5017599;28;20286;-81
2020/12/13 02:51:44;;;;;;;109.10;47.53;;;2.70;99.90;;;;;;5017132;28;20633;-80
2020/12/13 02:54:10;;;;;;;118.95;49.55;;;2.70;99.90;;;;;;5017013;28;20300;-80
2020/12/13 02:56:41;;;;;;;109.97;49.00;;;2.60;99.90;;;;;;5023777;28;20299;-80
2020/12/13 02:59:08;;;;;;;120.47;47.33;;;2.70;99.90;;;;;;5034807;28;20685;-79
2020/12/13 03:01:34;;;;;;;114.63;47.13;;;2.70;99.90;;;;;;5016726;28;20211;-79
2020/12/13 03:04:01;;;;;;;128.05;49.35;;;2.70;99.90;;;;;;5016960;28;20222;-79
2020/12/13 03:06:27;;;;;;;109.65;49.50;;;2.70;99.90;;;;;;5016815;28;20228;-80
2020/12/13 03:08:53;;;;;;;124.20;52.45;;;2.80;99.90;;;;;;5017124;28;20220;-79
2020/12/13 03:11:20;;;;;;;116.95;51.03;;;2.80;99.90;;;;;;5016786;28;20681;-80
2020/12/13 03:13:49;;;;;;;116.93;48.65;;;2.80;99.90;;;;;;5017938;28;20200;-80
2020/12/13 03:16:15;;;;;;;119.00;47.42;;;2.80;99.90;;;;;;5016185;28;20201;-80
2020/12/13 03:18:41;;;;;;;115.43;48.95;;;2.80;99.90;;;;;;5016521;28;20224;-80
2020/12/13 03:21:08;;;;;;;120.78;47.72;;;2.80;99.90;;;;;;5016337;28;20208;-79
2020/12/13 03:23:34;;;;;;;119.43;47.72;;;2.80;99.90;;;;;;5016880;28;20211;-80
2020/12/13 03:26:00;;;;;;;133.80;49.78;;;2.80;99.90;;;;;;5016635;28;20228;-80
2020/12/13 03:28:27;;;;;;;113.32;48.75;;;2.80;99.90;;;;;;5016469;28;20220;-80
2020/12/13 03:30:54;;;;;;;135.30;48.95;;;2.80;99.90;;;;;;5016093;28;20296;-80
2020/12/13 03:33:20;;;;;;;104.95;46.92;;;2.90;99.90;;;;;;5017137;28;20238;-79
2020/12/13 03:35:47;;;;;;;108.95;46.25;;;2.90;99.90;;;;;;5016333;28;20303;-80
2020/12/13 03:38:13;;;;;;;116.15;47.65;;;2.90;99.90;;;;;;5016415;28;20204;-80
2020/12/13 03:40:40;;;;;;;118.68;47.42;;;2.80;99.90;;;;;;5016216;28;20579;-80
2020/12/13 03:43:06;;;;;;;112.28;46.63;;;2.90;99.90;;;;;;5016098;28;20554;-79
2020/12/13 03:45:33;;;;;;;106.20;45.92;;;2.90;99.90;;;;;;5016290;28;20224;-81
2020/12/13 03:48:00;;;;;;;109.57;45.88;;;2.80;99.90;;;;;;5016034;28;20615;-80
2020/12/13 03:50:38;;;;;;;111.63;47.33;;;2.80;99.90;;;;;;5015734;28;20236;-80
2020/12/13 03:53:05;;;;;;;124.25;49.65;;;2.80;99.90;;;;;;5017612;28;20192;-80
2020/12/13 03:55:31;;;;;;;112.30;46.10;;;2.80;99.90;;;;;;5026565;28;20752;-78
2020/12/13 03:57:57;;;;;;;130.20;51.55;;;2.90;99.90;;;;;;5018287;28;20443;-80
2020/12/13 04:00:26;;;;;;;131.45;51.42;;;2.90;99.90;;;;;;5022949;28;20234;-79
2020/12/13 04:02:53;;;;;;;100.22;46.28;;;2.90;99.90;;;;;;5024175;28;20208;-78
2020/12/13 04:05:21;;;;;;;116.97;48.55;;;2.90;99.90;;;;;;5020895;28;20204;-80
2020/12/13 04:07:47;;;;;;;113.22;49.40;;;2.80;99.90;;;;;;5015167;28;20453;-80
2020/12/13 04:10:13;;;;;;;105.22;47.65;;;2.80;99.90;;;;;;5016355;28;20263;-81
2020/12/13 04:12:39;;;;;;;111.22;49.20;;;2.80;99.90;;;;;;5016301;28;20204;-81
2020/12/13 04:15:06;;;;;;;112.40;44.20;;;2.80;99.90;;;;;;5016184;28;20203;-81
2020/12/13 04:17:32;;;;;;;95.45;44.08;;;2.80;99.90;;;;;;5015936;28;20211;-81
2020/12/13 04:19:58;;;;;;;100.53;46.30;;;2.80;99.90;;;;;;5015609;28;20233;-80
2020/12/13 04:22:26;;;;;;;121.43;46.05;;;2.90;99.90;;;;;;5016124;28;20299;-80
2020/12/13 04:24:52;;;;;;;112.53;48.42;;;2.90;99.90;;;;;;5015629;28;20208;-81
2020/12/13 04:27:18;;;;;;;110.07;47.90;;;2.90;99.90;;;;;;5015946;28;20260;-80
2020/12/13 04:29:45;;;;;;;108.18;47.28;;;2.90;99.90;;;;;;5014330;28;20234;-80
2020/12/13 04:32:11;;;;;;;107.47;48.35;;;2.90;99.90;;;;;;5016226;28;20572;-80
2020/12/13 04:34:37;;;;;;;115.57;48.10;;;2.90;99.90;;;;;;5015897;28;20216;-80
2020/12/13 04:37:03;;;;;;;110.30;44.40;;;2.90;99.90;;;;;;5015935;28;20200;-80
2020/12/13 04:39:31;;;;;;;98.68;43.85;;;2.90;99.90;;;;;;5016402;28;20224;-81
2020/12/13 04:41:57;;;;;;;107.80;46.25;;;3.00;99.90;;;;;;5016717;28;20247;-80
2020/12/13 04:44:24;;;;;;;108.90;48.30;;;2.90;99.90;;;;;;5016856;28;20204;-81
2020/12/13 04:46:54;;;;;;;107.78;45.38;;;3.00;99.90;;;;;;5017335;28;20224;-81
2020/12/13 04:49:22;;;;;;;103.38;45.90;;;2.90;99.90;;;;;;5019910;28;20239;-81
2020/12/13 04:51:51;;;;;;;116.65;47.30;;;2.90;99.90;;;;;;5020405;28;20211;-81
2020/12/13 04:54:21;;;;;;;105.65;45.70;;;2.90;99.90;;;;;;5020274;28;20223;-81
2020/12/13 04:56:50;;;;;;;115.95;47.72;;;2.90;99.90;;;;;;5028787;28;20446;-78
2020/12/13 04:59:17;;;;;;;101.20;42.53;;;3.00;99.90;;;;;;5025311;28;20224;-80
2020/12/13 05:01:45;;;;;;;117.75;47.97;;;2.80;99.90;;;;;;5019961;28;20204;-80
2020/12/13 05:04:11;;;;;;;117.43;46.22;;;2.90;99.90;;;;;;5020164;28;20224;-81
2020/12/13 05:06:39;;;;;;;112.60;46.92;;;3.00;99.90;;;;;;5019993;28;20212;-81
2020/12/13 05:09:06;;;;;;;102.07;44.03;;;3.00;99.90;;;;;;5019546;28;20256;-80
2020/12/13 05:11:32;;;;;;;98.80;46.45;;;3.00;99.90;;;;;;5019440;28;20211;-80
2020/12/13 05:13:59;;;;;;;114.15;47.80;;;2.90;99.90;;;;;;5020322;28;20208;-80
2020/12/13 05:16:26;;;;;;;101.53;44.55;;;2.90;99.90;;;;;;5019378;28;20203;-80
2020/12/13 05:18:52;;;;;;;117.50;47.50;;;2.90;99.90;;;;;;5019631;28;20227;-80
2020/12/13 05:21:21;;;;;;;118.97;47.00;;;2.90;99.90;;;;;;5019596;28;20228;-80
2020/12/13 05:23:48;;;;;;;109.30;42.70;;;3.00;99.90;;;;;;5019425;28;20212;-80
2020/12/13 05:26:15;;;;;;;104.63;44.80;;;2.90;99.90;;;;;;5019019;28;20227;-80
2020/12/13 05:28:47;;;;;;;105.25;45.08;;;2.90;99.90;;;;;;5019457;28;20256;-80
2020/12/13 05:31:16;;;;;;;107.43;47.13;;;2.90;99.90;;;;;;5019265;28;20215;-80
2020/12/13 05:36:46;;;;;;;108.05;45.03;;;3.00;99.90;;;;;;5011547;28;20215;-80
2020/12/13 05:39:19;;;;;;;107.00;45.40;;;3.00;99.90;;;;;;5021088;28;20225;-80
2020/12/13 05:41:52;;;;;;;125.13;48.13;;;3.00;99.90;;;;;;5019209;28;20443;-80
2020/12/13 05:44:35;;;;;;;116.80;51.55;;;2.90;99.90;;;;;;5018186;28;20181;-80
2020/12/13 05:47:10;;;;;;;120.35;46.50;;;2.90;99.90;;;;;;5019682;28;20621;-80
2020/12/13 05:52:27;;;;;;;106.45;46.28;;;3.00;99.90;;;;;;5016577;28;20239;-80
2020/12/13 05:54:55;;;;;;;122.93;45.40;;;3.00;99.90;;;;;;5019096;28;20204;-79
2020/12/13 05:57:25;;;;;;;127.95;50.08;;;3.00;99.90;;;;;;5017996;28;20435;-79
2020/12/13 05:59:54;;;;;;;135.40;56.67;;;3.00;99.90;;;;;;5017523;28;20897;-80
2020/12/13 06:02:26;;;;;;;129.85;52.42;;;3.00;99.90;;;;;;5019048;28;20211;-80
2020/12/13 06:05:04;;;;;;;111.25;46.65;;;3.10;99.90;;;;;;5019293;28;20299;-81
2020/12/13 06:10:41;;;;;;;121.95;51.10;;;2.90;99.90;;;;;;5002436;28;20522;-81
2020/12/13 06:13:28;;;;;;;121.45;49.88;;;3.00;99.90;;;;;;5020818;28;20212;-81
2020/12/13 06:16:04;;;;;;;109.05;47.60;;;3.00;99.90;;;;;;5022415;28;20212;-81
2020/12/13 06:18:40;;;;;;;114.00;46.88;;;3.10;99.90;;;;;;5020662;28;20227;-81
2020/12/13 06:21:16;;;;;;;116.03;46.17;;;3.10;99.90;;;;;;5019167;28;20208;-81
2020/12/13 06:24:14;;;;;;;116.07;48.75;;;3.10;99.90;;;;;;5020608;28;20489;-81
2020/12/13 06:26:46;;;;;;;122.35;48.55;;;3.00;99.90;;;;;;5004308;28;20241;-81
2020/12/13 06:29:13;;;;;;;110.25;48.35;;;3.00;99.90;;;;;;5022497;28;20235;-81
2020/12/13 06:32:08;;;;;;;;;;;;;;;;;;;;;
2020/12/13 06:35:05;;;;;;;;;;;;;;;;;;;;;
2020/12/13 06:37:45;;;;;;;99.43;44.45;;;3.10;99.90;;;;;;5018842;28;20295;-80
2020/12/13 06:40:20;;;;;;;94.28;44.03;;;3.10;99.90;;;;;;5020611;28;20318;-81
2020/12/13 06:42:50;;;;;;;104.43;46.03;;;3.10;99.90;;;;;;5019344;28;20451;-81
2020/12/13 06:45:22;;;;;;;87.65;41.17;;;3.10;99.90;;;;;;5020431;28;20395;-81
2020/12/13 06:47:50;;;;;;;90.20;42.40;;;3.10;99.90;;;;;;5019666;28;20292;-81
2020/12/13 06:50:23;;;;;;;95.15;43.78;;;3.10;99.90;;;;;;5017267;28;20240;-81
2020/12/13 06:52:50;;;;;;;98.10;45.53;;;3.10;99.90;;;;;;5016201;28;20439;-81
2020/12/13 06:55:18;;;;;;;94.05;43.83;;;3.10;99.90;;;;;;5017288;28;20451;-81
2020/12/13 06:57:47;;;;;;;101.43;47.65;;;3.10;99.90;;;;;;5016082;28;20446;-81
2020/12/13 07:00:14;;;;;;;85.93;41.35;;;3.00;99.90;;;;;;5016779;28;20224;-81
2020/12/13 07:02:57;;;;;;;106.78;48.40;;;2.90;99.90;;;;;;5015905;28;20451;-80
2020/12/13 07:05:53;;;;;;;94.20;45.42;;;3.00;99.90;;;;;;5020729;28;20447;-78
2020/12/13 07:08:22;;;;;;;100.70;42.88;;;3.10;99.90;;;;;;5025689;28;20208;-79
2020/12/13 07:10:51;;;;;;;85.20;42.90;;;3.00;99.90;;;;;;5028863;28;20447;-80
2020/12/13 07:13:20;;;;;;;89.93;41.30;;;2.90;99.90;;;;;;5029987;28;20478;-79
2020/12/13 07:15:50;;;;;;;92.28;39.85;;;3.00;99.90;;;;;;5029819;28;20219;-79
2020/12/13 07:18:20;;;;;;;87.55;43.00;;;3.10;99.90;;;;;;5028728;28;20234;-79
2020/12/13 07:20:47;;;;;;;87.38;40.85;;;3.00;99.90;;;;;;5028400;28;20216;-78
2020/12/13 07:23:14;;;;;;;96.68;41.30;;;3.00;99.90;;;;;;5029157;28;20243;-79
2020/12/13 07:25:41;;;;;;;91.47;40.15;;;3.00;99.90;;;;;;5028593;28;20208;-79
2020/12/13 07:28:08;;;;;;;97.03;43.03;;;3.00;99.90;;;;;;5028177;28;20208;-78
2020/12/13 07:30:37;;;;;;;90.75;40.42;;;3.10;99.90;;;;;;5027335;28;20278;-78
2020/12/13 07:33:04;;;;;;;91.55;40.50;;;3.10;99.90;;;;;;5028266;28;20219;-78
2020/12/13 07:35:30;;;;;;;86.93;41.63;;;3.10;99.90;;;;;;5028086;28;20264;-78
2020/12/13 07:38:00;;;;;;;85.35;39.08;;;3.10;99.90;;;;;;5028425;28;20234;-78
2020/12/13 07:40:29;;;;;;;80.95;37.67;;;3.10;99.90;;;;;;5028524;28;20234;-79
2020/12/13 07:42:57;;;;;;;89.65;38.05;;;3.10;99.90;;;;;;5029474;28;20240;-79
2020/12/13 07:45:24;;;;;;;85.75;42.28;;;3.10;99.90;;;;;;5029747;28;20270;-79
2020/12/13 07:48:00;;;;;;;79.68;37.38;;;3.20;99.90;;;;;;5028480;28;20284;-80
2020/12/13 07:50:34;;;;;;;84.70;38.88;;;3.20;99.90;;;;;;5026585;28;20696;-79
2020/12/13 07:53:04;;;;;;;88.60;40.42;;;3.20;99.90;;;;;;5017407;28;20208;-79
2020/12/13 07:55:30;;;;;;;78.03;38.10;;;3.20;99.90;;;;;;5016145;28;20251;-80
2020/12/13 07:57:57;;;;;;;93.82;39.65;;;3.10;99.90;;;;;;5016209;28;20207;-81
2020/12/13 08:00:24;;;;;;;82.00;38.85;;;3.20;99.90;;;;;;5016354;28;20303;-81
2020/12/13 08:02:55;;;;;;;93.30;43.25;;;3.20;99.90;;;;;;5016376;28;20204;-81
2020/12/13 08:05:25;;;;;;;84.68;39.45;;;3.10;99.90;;;;;;5017220;28;20208;-81
2020/12/13 08:07:58;;;;;;;84.30;40.10;;;3.20;99.90;;;;;;5017780;28;20719;-81
2020/12/13 08:10:28;;;;;;;100.18;42.92;;;3.20;99.90;;;;;;5017320;28;20255;-81
2020/12/13 08:12:55;;;;;;;94.70;42.47;;;3.20;99.90;;;;;;5017568;28;20211;-81
2020/12/13 08:15:25;;;;;;;86.32;39.33;;;3.30;99.90;;;;;;5016577;28;20329;-81
2020/12/13 08:18:03;;;;;;;91.20;40.00;;;3.40;99.90;;;;;;5017376;28;20200;-81
2020/12/13 08:20:32;;;;;;;92.78;39.65;;;3.40;99.90;;;;;;5016797;28;20232;-81
2020/12/13 08:23:01;;;;;;;83.38;40.65;;;3.40;99.90;;;;;;5020782;28;20188;-81
2020/12/13 08:25:29;;;;;;;86.07;39.78;;;3.40;99.90;;;;;;5023722;28;20607;-80
2020/12/13 08:27:57;;;;;;;84.57;39.35;;;3.40;99.90;;;;;;5021084;28;20236;-81
2020/12/13 08:30:25;;;;;;;76.25;36.67;;;3.40;99.90;;;;;;5021399;28;20243;-81
2020/12/13 08:32:55;;;;;;;80.25;39.78;;;3.40;99.90;;;;;;5019539;28;20252;-80
2020/12/13 08:35:23;;;;;;;85.63;39.88;;;3.40;99.90;;;;;;5022012;28;20204;-81
2020/12/13 08:37:53;;;;;;;74.20;37.13;;;3.40;99.90;;;;;;5020414;28;20204;-81
2020/12/13 08:40:36;;;;;;;77.95;37.92;;;3.40;99.90;;;;;;5021455;28;20263;-81
2020/12/13 08:43:03;;;;;;;82.47;40.75;;;3.40;99.90;;;;;;5021424;28;20204;-81
2020/12/13 08:45:30;;;;;;;77.72;39.22;;;3.40;99.90;;;;;;5021041;28;20262;-81
2020/12/13 08:48:00;;;;;;;75.68;36.60;;;3.40;99.90;;;;;;5020629;28;20282;-81
2020/12/13 08:50:27;;;;;;;89.43;40.53;;;3.50;99.90;;;;;;5021159;28;20311;-81
2020/12/13 08:52:54;;;;;;;78.05;36.85;;;3.50;99.90;;;;;;5020704;28;20595;-81
2020/12/13 08:55:27;;;;;;;75.80;37.83;;;3.50;99.90;;;;;;5020462;28;20247;-81
2020/12/13 08:58:01;;;;;;;77.43;36.00;;;3.50;99.90;;;;;;5019955;28;20212;-81
2020/12/13 09:00:28;;;;;;;74.78;36.53;;;3.40;99.90;;;;;;5019731;28;20276;-81
2020/12/13 09:02:56;;;;;;;74.88;37.35;;;3.30;99.90;;;;;;5019075;28;20212;-81
2020/12/13 09:05:27;;;;;;;71.00;37.22;;;3.40;99.90;;;;;;5017628;28;20216;-81
2020/12/13 09:07:55;;;;;;;88.43;39.90;;;3.50;99.90;;;;;;5019400;28;20228;-81
2020/12/13 09:10:23;;;;;;;69.30;37.00;;;3.50;99.90;;;;;;5019953;28;20234;-81
2020/12/13 09:12:49;;;;;;;75.93;37.35;;;3.60;99.90;;;;;;5020756;28;20211;-81
2020/12/13 09:15:19;;;;;;;70.60;36.58;;;3.60;99.90;;;;;;5022413;28;20575;-79
2020/12/13 09:17:57;;;;;;;85.55;37.72;;;3.60;99.90;;;;;;5021696;28;20593;-81
2020/12/13 09:20:25;;;;;;;78.00;36.88;;;3.60;99.90;;;;;;5020793;28;20743;-81
2020/12/13 09:23:01;;;;;;;72.15;37.30;;;3.70;99.90;;;;;;5018887;28;20696;-80
2020/12/13 09:25:28;;;;;;;75.30;37.15;;;3.60;99.90;;;;;;5019180;28;20260;-80
2020/12/13 09:28:01;;;;;;;75.43;36.80;;;3.60;99.90;;;;;;5019341;28;20221;-79
2020/12/13 09:30:29;;;;;;;68.07;38.10;;;3.70;99.90;;;;;;5019327;28;20231;-80
2020/12/13 09:32:56;;;;;;;75.40;37.72;;;3.60;99.90;;;;;;5018703;28;20572;-81
2020/12/13 09:35:22;;;;;;;70.10;36.92;;;3.60;99.90;;;;;;5020087;28;20201;-82
2020/12/13 09:37:49;;;;;;;77.15;37.65;;;3.70;99.90;;;;;;5018785;28;20693;-81
2020/12/13 09:40:15;;;;;;;67.07;38.40;;;3.70;99.90;;;;;;5018749;28;20743;-80
2020/12/13 09:42:41;;;;;;;77.80;39.40;;;3.70;99.90;;;;;;5018879;28;20286;-81
2020/12/13 09:45:08;;;;;;;76.05;36.67;;;3.70;99.90;;;;;;5018778;28;20216;-79
2020/12/13 09:47:35;;;;;;;76.28;37.30;;;3.60;99.90;;;;;;5018247;28;20650;-80
2020/12/13 09:50:01;;;;;;;80.15;39.22;;;3.60;99.90;;;;;;5018453;28;20244;-81
2020/12/13 09:52:28;;;;;;;73.68;37.63;;;3.60;99.90;;;;;;5018572;28;20232;-81
2020/12/13 09:54:54;;;;;;;70.90;36.05;;;3.70;99.90;;;;;;5018736;28;20290;-81
2020/12/13 09:57:20;;;;;;;64.45;36.92;;;3.70;99.90;;;;;;5019304;28;20272;-81
2020/12/13 09:59:47;;;;;;;63.15;37.42;;;3.70;99.90;;;;;;5019026;28;20689;-82
2020/12/13 10:02:13;;;;;;;69.72;38.35;;;3.80;99.90;;;;;;5019663;28;20210;-82
2020/12/13 10:04:40;;;;;;;66.43;36.65;;;3.90;99.90;;;;;;5018228;28;20204;-81
2020/12/13 10:07:27;;;;;;;67.25;37.53;;;3.80;99.90;;;;;;5020186;28;20220;-82
2020/12/13 10:09:52;;;;;;;65.07;37.58;;;3.80;99.90;;;;;;5019505;28;20224;-81
2020/12/13 10:12:19;;;;;;;65.27;36.37;;;3.80;99.90;;;;;;5018994;28;20251;-80
2020/12/13 10:14:45;;;;;;;62.15;36.83;;;4.00;99.90;;;;;;5019393;28;20869;-82
2020/12/13 10:17:12;;;;;;;66.70;37.95;;;3.90;99.90;;;;;;5018956;28;20207;-82
2020/12/13 10:19:39;;;;;;;67.15;38.47;;;3.90;99.90;;;;;;5018351;28;20256;-82
2020/12/13 10:22:06;;;;;;;63.58;35.95;;;3.90;99.90;;;;;;5018807;28;20215;-81
2020/12/13 10:24:32;;;;;;;62.05;36.08;;;3.90;99.90;;;;;;5018176;28;20200;-81
2020/12/13 10:26:58;;;;;;;64.78;36.15;;;3.90;99.90;;;;;;5019143;28;20240;-81
2020/12/13 10:29:25;;;;;;;65.97;36.30;;;3.90;99.90;;;;;;5018487;28;20228;-82
2020/12/13 10:31:51;;;;;;;76.20;38.90;;;3.80;99.90;;;;;;5018799;28;20264;-82
2020/12/13 10:34:18;;;;;;;71.47;37.42;;;3.90;99.90;;;;;;5019445;28;20681;-82
2020/12/13 10:36:45;;;;;;;68.22;35.95;;;4.00;99.90;;;;;;5018608;28;20185;-82
2020/12/13 10:39:12;;;;;;;61.60;33.58;;;4.00;99.90;;;;;;5018766;28;20250;-82
2020/12/13 10:41:39;;;;;;;70.28;37.53;;;4.00;99.90;;;;;;5019022;28;20685;-81
2020/12/13 10:44:05;;;;;;;60.83;32.50;;;4.00;99.90;;;;;;5021201;28;20209;-79
2020/12/13 10:46:32;;;;;;;75.18;37.72;;;4.00;99.90;;;;;;5027714;28;20469;-82
2020/12/13 10:48:58;;;;;;;65.22;37.58;;;4.20;99.90;;;;;;5022342;28;20236;-82
2020/12/13 10:51:24;;;;;;;62.97;34.25;;;4.50;99.90;;;;;;5022746;28;20219;-82
2020/12/13 10:53:51;;;;;;;61.30;36.22;;;4.70;99.90;;;;;;5021410;28;20692;-82
2020/12/13 10:56:18;;;;;;;60.63;35.45;;;4.90;99.90;;;;;;5021026;28;20203;-83
2020/12/13 10:58:46;;;;;;;64.35;36.13;;;5.00;99.90;;;;;;5020427;28;20220;-82
2020/12/13 11:01:13;;;;;;;61.35;35.08;;;5.10;99.90;;;;;;5019988;28;20230;-83
2020/12/13 11:03:40;;;;;;;58.88;33.65;;;5.10;99.90;;;;;;5019779;28;20271;-83
2020/12/13 11:06:08;;;;;;;60.75;34.88;;;5.20;99.90;;;;;;5019942;28;20231;-82
2020/12/13 11:08:34;;;;;;;60.63;35.85;;;5.20;99.90;;;;;;5021088;28;20201;-83
2020/12/13 11:11:02;;;;;;;59.47;33.88;;;5.30;99.90;;;;;;5020888;28;20209;-83
2020/12/13 11:13:28;;;;;;;63.50;35.33;;;5.30;99.90;;;;;;5020035;28;20200;-83
2020/12/13 11:15:54;;;;;;;63.00;36.92;;;5.30;99.90;;;;;;5019923;28;20201;-83
2020/12/13 11:18:20;;;;;;;65.88;38.95;;;5.30;99.90;;;;;;5020450;28;20215;-83
2020/12/13 11:20:47;;;;;;;61.45;35.85;;;5.30;99.90;;;;;;5020035;28;20195;-83
2020/12/13 11:23:13;;;;;;;65.43;36.92;;;5.30;99.90;;;;;;5020871;28;20200;-84
2020/12/13 11:25:40;;;;;;;63.38;35.70;;;5.30;99.90;;;;;;5020306;28;20256;-82
2020/12/13 11:28:07;;;;;;;64.35;36.20;;;5.30;99.90;;;;;;5019987;28;20291;-83
2020/12/13 11:30:34;;;;;;;54.90;33.55;;;5.30;99.90;;;;;;5020180;28;20279;-82
2020/12/13 11:33:00;;;;;;;60.75;35.80;;;5.40;99.90;;;;;;5020943;28;20717;-83
2020/12/13 11:35:27;;;;;;;60.60;37.05;;;5.50;99.90;;;;;;5020903;28;20215;-83
2020/12/13 11:37:53;;;;;;;63.17;35.20;;;5.60;99.90;;;;;;5023962;28;20220;-81
2020/12/13 11:40:20;;;;;;;60.53;34.15;;;5.60;99.90;;;;;;5025157;28;20220;-82
2020/12/13 11:42:47;;;;;;;57.70;34.75;;;5.70;99.90;;;;;;5021491;28;20373;-83
2020/12/13 11:45:14;;;;;;;60.67;36.38;;;5.70;99.90;;;;;;5019913;28;20215;-83
2020/12/13 11:47:40;;;;;;;57.05;35.45;;;5.70;99.90;;;;;;5019423;28;20341;-82
2020/12/13 11:50:07;;;;;;;58.80;35.70;;;5.70;99.90;;;;;;5045840;22;20701;-85
2020/12/13 11:52:33;;;;;;;54.90;34.75;;;5.70;99.90;;;;;;5024726;28;20243;-85
2020/12/13 11:55:27;;;;;;;58.30;34.40;;;5.70;99.90;;;;;;5026574;28;20189;-86
2020/12/13 11:58:40;;;;;;;61.80;35.75;;;5.80;99.90;;;;;;5025867;28;20671;-86
2020/12/13 12:01:40;;;;;;;57.42;33.92;;;5.70;99.90;;;;;;4991388;28;20208;-85
2020/12/13 12:07:33;;;;;;;60.10;35.92;;;5.80;99.90;;;;;;5009344;28;20243;-80
2020/12/13 12:10:31;;;;;;;59.75;37.22;;;5.60;99.90;;;;;;5002965;28;20263;-82
2020/12/13 12:13:29;;;;;;;61.28;38.13;;;4.80;99.90;;;;;;5009524;28;20232;-84
2020/12/13 12:18:54;;;;;;;63.95;38.03;;;4.60;99.90;;;;;;5004306;28;20236;-83
2020/12/13 12:24:42;;;;;;;65.95;38.22;;;4.60;99.90;;;;;;5004276;28;20263;-83
2020/12/13 12:27:08;;;;;;;67.28;37.72;;;4.70;99.90;;;;;;4998436;28;20225;-82
2020/12/13 12:29:41;;;;;;;63.28;36.85;;;4.80;99.90;;;;;;5004854;28;20265;-82
2020/12/13 12:32:11;;;;;;;74.03;40.38;;;4.70;99.90;;;;;;5004747;28;20625;-82
2020/12/13 12:34:40;;;;;;;66.22;37.72;;;4.80;99.90;;;;;;5005139;28;20652;-82
2020/12/13 12:37:08;;;;;;;63.50;39.35;;;4.80;99.90;;;;;;4998623;28;20283;-81
2020/12/13 12:39:42;;;;;;;64.68;38.08;;;4.80;99.90;;;;;;5001378;28;20253;-81
2020/12/13 12:42:11;;;;;;;70.65;39.40;;;4.80;99.90;;;;;;5005920;28;20311;-83
2020/12/13 12:44:49;;;;;;;64.15;37.13;;;4.80;99.90;;;;;;5009088;28;20216;-82
2020/12/13 12:47:25;;;;;;;70.65;38.97;;;4.80;99.90;;;;;;5007298;28;20558;-84
2020/12/13 12:49:52;;;;;;;69.30;38.05;;;4.70;99.90;;;;;;5007313;28;20288;-81
2020/12/13 12:52:22;;;;;;;64.22;37.72;;;4.70;99.90;;;;;;5002923;28;20229;-83
2020/12/13 12:54:49;;;;;;;65.93;37.70;;;4.70;99.90;;;;;;5007950;28;20201;-83
2020/12/13 12:57:15;;;;;;;65.43;36.08;;;4.70;99.90;;;;;;5010277;28;20269;-83
2020/12/13 13:00:05;;;;;;;66.57;37.38;;;4.60;99.90;;;;;;5009435;28;20225;-82
2020/12/13 13:02:31;;;;;;;70.00;39.63;;;4.50;99.90;;;;;;5010597;28;20543;-83
2020/12/13 13:05:16;;;;;;;61.00;36.95;;;4.50;99.90;;;;;;5010203;28;20203;-83